Startpagina
METAR-TAF:

METAR-TAF

Vliegvelden :

Aeroporto de Faro

Faro, Portugal

breedte: 37-01N, lengte: 007-58W, hoogte: 7 m

Actueel weer

Dit bericht is 35 minuten geleden gemaakt, om 07:00 UTC
Wind 10 kt uit het oostnoordoosten
Temperatuur 13°C
Vochtigheid 72%
Druk 1022 hPa
Zicht 10 km of meer
geen wolken onder 1500 m en geen cumulonimbus

METAR: LPFR 200700Z 06010KT CAVOK 13/08 Q1022

Tijdstip: 07:35 (07:35 UTC)

Verwachting

Dit bericht is 2 uur en het 35 minuten geleden gemaakt, om 05:00 UTC
Verwachting geldig van 20 om 06 UTC tot 21 om 06 UTC
Wind 8 kt uit het noordoosten
Zicht 10 km of meer
geen wolken onder 1500 m en geen cumulonimbus
Wijzigt naar
van 20 om 12 UTC tot 20 om 15 UTC
Wind 8 kt uit het oostzuidoosten
Zicht 10 km of meer
Verspreide wolken op 4000 ft
Wijzigt naar
van 20 om 19 UTC tot 20 om 21 UTC
Wind 8 kt uit het oostnoordoosten
Zicht 10 km of meer
geen wolken onder 1500 m en geen cumulonimbus

TAF: LPFR 200500Z 2006/2106 04008KT CAVOK BECMG 2012/2015 11008KT 9999 SCT040 BECMG 2019/2021 07008KT CAVOK

Waarnemingen en weersverwachtingen van meer dan 4000 vliegvelden (METAR en TAF).

De beschikbare stations zijn de gele en rode punten op de kaart.

Ga met uw muis naar het station om de naam te zien.

Klik dan om waarnemingen en weersverwachtingen te zien.

kaart wijzigen: klik op de groene knoppen met een zwart kruis om in te zoomen, op de groene knop met een streepje om uit te zoomen of op de groene pijlen voor aangrenzende kaarten.


METAR-TAF: